Isle of Arran, United Kingdom
Current Conditions -  °F | °C
As of 3:50 AM on Sunday 26 Oct 2014 (Local Time) from EGPK Reporting Station
Scattered Clouds Scattered Clouds  
Wind Chill: 54°   Ceiling: Unl
Heat Index: 54°   Visibility: 6mi
Dew Point: 46°   Wind: 20mph
Humidity: 77%   Direction: 210°SSW
Pressure: 29.74"   Gusts: NA
Location:  55.58°N, 5.15°W
Report Text: EGPK 260250Z 21017KT 9999 SCT033 12/08 Q1007
Loading
Personal Weather Stations






























Interactive Weather Map New forecast layout! Learn more

10-Day Weather Forecast

Advertisements
Track Severe Weather on mobile